Terminal Aerodrome Forecast
Issued by NWS

Current Version | Previous Version | Text Only | Print | Product List | Glossary On
Versions: 1 2 3 4 5 6 7 8 9 10 11 12 13
000
FTUS44 KEPZ 221146
TAFTCS
TAF
KTCS 221146Z 2212/2312 VRB05KT P6SM FEW120 SCT250
     FM221600 18008KT P6SM FEW110
     FM222100 20014G21KT P6SM FEW140
     FM230800 30006KT P6SM SKC=

USA.gov is the U.S. government's official web portal to all federal, state and local government web resources and services.